sensor_id;sensor_type;location;lat;lon;timestamp;P1;durP1;ratioP1;P2;durP2;ratioP2
71622;SDS011;59473;53.214;5.728;2023-09-07T00:00:34;5.60;;;2.40;;
71622;SDS011;59473;53.214;5.728;2023-09-07T00:02:59;5.03;;;1.97;;
71622;SDS011;59473;53.214;5.728;2023-09-07T00:05:25;7.60;;;2.70;;
71622;SDS011;59473;53.214;5.728;2023-09-07T00:07:50;8.80;;;2.50;;
71622;SDS011;59473;53.214;5.728;2023-09-07T00:10:15;4.83;;;2.17;;
71622;SDS011;59473;53.214;5.728;2023-09-07T00:12:42;8.45;;;2.80;;
71622;SDS011;59473;53.214;5.728;2023-09-07T00:15:08;5.80;;;2.30;;
71622;SDS011;59473;53.214;5.728;2023-09-07T00:17:33;7.63;;;2.53;;
71622;SDS011;59473;53.214;5.728;2023-09-07T00:19:59;8.00;;;2.70;;
71622;SDS011;59473;53.214;5.728;2023-09-07T00:22:24;6.00;;;2.90;;
71622;SDS011;59473;53.214;5.728;2023-09-07T00:24:52;5.88;;;2.75;;
71622;SDS011;59473;53.214;5.728;2023-09-07T00:27:17;8.70;;;2.57;;
71622;SDS011;59473;53.214;5.728;2023-09-07T00:29:43;5.60;;;2.70;;
71622;SDS011;59473;53.214;5.728;2023-09-07T00:32:08;5.30;;;2.50;;
71622;SDS011;59473;53.214;5.728;2023-09-07T00:34:34;7.07;;;2.97;;
71622;SDS011;59473;53.214;5.728;2023-09-07T00:37:00;6.63;;;2.73;;
71622;SDS011;59473;53.214;5.728;2023-09-07T00:39:25;6.90;;;2.80;;
71622;SDS011;59473;53.214;5.728;2023-09-07T00:41:50;6.17;;;2.70;;
71622;SDS011;59473;53.214;5.728;2023-09-07T00:44:15;7.10;;;3.10;;
71622;SDS011;59473;53.214;5.728;2023-09-07T00:46:41;5.83;;;2.77;;
71622;SDS011;59473;53.214;5.728;2023-09-07T00:49:06;8.30;;;3.10;;
71622;SDS011;59473;53.214;5.728;2023-09-07T00:51:31;7.67;;;3.73;;
71622;SDS011;59473;53.214;5.728;2023-09-07T00:53:57;6.83;;;2.80;;
71622;SDS011;59473;53.214;5.728;2023-09-07T00:56:24;9.13;;;3.13;;
71622;SDS011;59473;53.214;5.728;2023-09-07T00:58:49;6.78;;;3.50;;
71622;SDS011;59473;53.214;5.728;2023-09-07T01:01:15;9.95;;;3.40;;
71622;SDS011;59473;53.214;5.728;2023-09-07T01:03:40;9.17;;;2.80;;
71622;SDS011;59473;53.214;5.728;2023-09-07T01:08:42;7.70;;;3.03;;
71622;SDS011;59473;53.214;5.728;2023-09-07T01:11:14;5.90;;;2.90;;
71622;SDS011;59473;53.214;5.728;2023-09-07T01:13:40;10.02;;;3.08;;
71622;SDS011;59473;53.214;5.728;2023-09-07T01:16:05;9.10;;;3.50;;
71622;SDS011;59473;53.214;5.728;2023-09-07T01:18:31;9.15;;;3.38;;
71622;SDS011;59473;53.214;5.728;2023-09-07T01:20:56;5.53;;;2.47;;
71622;SDS011;59473;53.214;5.728;2023-09-07T01:23:23;6.15;;;3.00;;
71622;SDS011;59473;53.214;5.728;2023-09-07T01:25:48;5.80;;;2.93;;
71622;SDS011;59473;53.214;5.728;2023-09-07T01:28:14;7.03;;;3.33;;
71622;SDS011;59473;53.214;5.728;2023-09-07T01:30:40;8.23;;;3.42;;
71622;SDS011;59473;53.214;5.728;2023-09-07T01:33:05;7.00;;;3.30;;
71622;SDS011;59473;53.214;5.728;2023-09-07T01:35:31;6.27;;;3.33;;
71622;SDS011;59473;53.214;5.728;2023-09-07T01:37:57;9.77;;;3.67;;
71622;SDS011;59473;53.214;5.728;2023-09-07T01:40:22;6.53;;;3.20;;
71622;SDS011;59473;53.214;5.728;2023-09-07T01:42:47;10.77;;;3.90;;
71622;SDS011;59473;53.214;5.728;2023-09-07T01:45:13;7.83;;;3.87;;
71622;SDS011;59473;53.214;5.728;2023-09-07T01:47:38;7.60;;;4.20;;
71622;SDS011;59473;53.214;5.728;2023-09-07T01:50:03;8.57;;;4.40;;
71622;SDS011;59473;53.214;5.728;2023-09-07T01:52:29;9.32;;;4.43;;
71622;SDS011;59473;53.214;5.728;2023-09-07T01:54:55;6.63;;;3.63;;
71622;SDS011;59473;53.214;5.728;2023-09-07T01:57:20;10.95;;;4.15;;
71622;SDS011;59473;53.214;5.728;2023-09-07T01:59:45;7.97;;;4.30;;
71622;SDS011;59473;53.214;5.728;2023-09-07T02:02:13;11.07;;;4.23;;
71622;SDS011;59473;53.214;5.728;2023-09-07T02:04:38;8.73;;;4.10;;
71622;SDS011;59473;53.214;5.728;2023-09-07T02:07:03;9.30;;;4.45;;
71622;SDS011;59473;53.214;5.728;2023-09-07T02:09:29;11.10;;;4.80;;
71622;SDS011;59473;53.214;5.728;2023-09-07T02:11:55;8.33;;;3.97;;
71622;SDS011;59473;53.214;5.728;2023-09-07T02:14:20;7.27;;;4.40;;
71622;SDS011;59473;53.214;5.728;2023-09-07T02:16:45;8.30;;;4.47;;
71622;SDS011;59473;53.214;5.728;2023-09-07T02:19:10;9.00;;;4.60;;
71622;SDS011;59473;53.214;5.728;2023-09-07T02:21:35;11.87;;;4.47;;
71622;SDS011;59473;53.214;5.728;2023-09-07T02:24:01;10.13;;;4.30;;
71622;SDS011;59473;53.214;5.728;2023-09-07T02:26:26;7.80;;;4.40;;
71622;SDS011;59473;53.214;5.728;2023-09-07T02:28:51;8.20;;;4.83;;
71622;SDS011;59473;53.214;5.728;2023-09-07T02:31:16;9.20;;;5.10;;
71622;SDS011;59473;53.214;5.728;2023-09-07T02:33:42;7.83;;;4.70;;
71622;SDS011;59473;53.214;5.728;2023-09-07T02:36:07;9.17;;;4.30;;
71622;SDS011;59473;53.214;5.728;2023-09-07T02:38:32;9.53;;;5.07;;
71622;SDS011;59473;53.214;5.728;2023-09-07T02:40:57;9.23;;;4.77;;
71622;SDS011;59473;53.214;5.728;2023-09-07T02:43:23;9.00;;;4.67;;
71622;SDS011;59473;53.214;5.728;2023-09-07T02:45:48;8.32;;;4.35;;
71622;SDS011;59473;53.214;5.728;2023-09-07T02:48:13;8.87;;;4.50;;
71622;SDS011;59473;53.214;5.728;2023-09-07T02:50:39;8.57;;;4.47;;
71622;SDS011;59473;53.214;5.728;2023-09-07T02:53:04;11.63;;;4.88;;
71622;SDS011;59473;53.214;5.728;2023-09-07T02:55:30;9.48;;;4.47;;
71622;SDS011;59473;53.214;5.728;2023-09-07T02:57:58;7.90;;;4.40;;
71622;SDS011;59473;53.214;5.728;2023-09-07T03:00:24;8.65;;;4.20;;
71622;SDS011;59473;53.214;5.728;2023-09-07T03:02:49;10.57;;;4.90;;
71622;SDS011;59473;53.214;5.728;2023-09-07T03:05:15;7.70;;;4.53;;
71622;SDS011;59473;53.214;5.728;2023-09-07T03:07:40;10.97;;;4.40;;
71622;SDS011;59473;53.214;5.728;2023-09-07T03:10:06;9.77;;;4.80;;
71622;SDS011;59473;53.214;5.728;2023-09-07T03:12:31;9.00;;;4.60;;
71622;SDS011;59473;53.214;5.728;2023-09-07T03:14:56;9.43;;;4.40;;
71622;SDS011;59473;53.214;5.728;2023-09-07T03:17:22;9.97;;;5.00;;
71622;SDS011;59473;53.214;5.728;2023-09-07T03:19:47;9.25;;;4.38;;
71622;SDS011;59473;53.214;5.728;2023-09-07T03:22:12;7.90;;;4.27;;
71622;SDS011;59473;53.214;5.728;2023-09-07T03:24:38;9.27;;;4.47;;
71622;SDS011;59473;53.214;5.728;2023-09-07T03:27:03;10.10;;;5.03;;
71622;SDS011;59473;53.214;5.728;2023-09-07T03:29:30;9.63;;;4.80;;
71622;SDS011;59473;53.214;5.728;2023-09-07T03:31:55;10.90;;;4.77;;
71622;SDS011;59473;53.214;5.728;2023-09-07T03:34:20;12.90;;;4.83;;
71622;SDS011;59473;53.214;5.728;2023-09-07T03:36:46;9.87;;;4.67;;
71622;SDS011;59473;53.214;5.728;2023-09-07T03:39:11;9.90;;;5.07;;
71622;SDS011;59473;53.214;5.728;2023-09-07T03:41:36;9.47;;;4.83;;
71622;SDS011;59473;53.214;5.728;2023-09-07T03:44:02;8.97;;;4.53;;
71622;SDS011;59473;53.214;5.728;2023-09-07T03:46:27;7.83;;;4.40;;
71622;SDS011;59473;53.214;5.728;2023-09-07T03:48:52;10.27;;;4.97;;
71622;SDS011;59473;53.214;5.728;2023-09-07T03:51:18;8.23;;;4.27;;
71622;SDS011;59473;53.214;5.728;2023-09-07T03:53:43;7.38;;;4.30;;
71622;SDS011;59473;53.214;5.728;2023-09-07T03:56:08;8.57;;;4.30;;
71622;SDS011;59473;53.214;5.728;2023-09-07T03:58:33;10.77;;;5.60;;
71622;SDS011;59473;53.214;5.728;2023-09-07T04:00:59;9.40;;;4.77;;
71622;SDS011;59473;53.214;5.728;2023-09-07T04:03:24;9.97;;;5.00;;
71622;SDS011;59473;53.214;5.728;2023-09-07T04:05:50;13.33;;;4.57;;
71622;SDS011;59473;53.214;5.728;2023-09-07T04:08:15;8.33;;;4.40;;
71622;SDS011;59473;53.214;5.728;2023-09-07T04:10:40;10.57;;;5.23;;
71622;SDS011;59473;53.214;5.728;2023-09-07T04:13:05;8.87;;;4.67;;
71622;SDS011;59473;53.214;5.728;2023-09-07T04:15:32;10.38;;;5.47;;
71622;SDS011;59473;53.214;5.728;2023-09-07T04:17:58;8.60;;;5.38;;
71622;SDS011;59473;53.214;5.728;2023-09-07T04:20:23;11.20;;;4.87;;
71622;SDS011;59473;53.214;5.728;2023-09-07T04:22:48;9.80;;;5.10;;
71622;SDS011;59473;53.214;5.728;2023-09-07T04:25:14;9.17;;;4.93;;
71622;SDS011;59473;53.214;5.728;2023-09-07T04:27:39;12.60;;;5.07;;
71622;SDS011;59473;53.214;5.728;2023-09-07T04:30:05;12.18;;;5.18;;
71622;SDS011;59473;53.214;5.728;2023-09-07T04:32:30;8.88;;;4.45;;
71622;SDS011;59473;53.214;5.728;2023-09-07T04:34:56;8.70;;;5.07;;
71622;SDS011;59473;53.214;5.728;2023-09-07T04:37:24;10.65;;;4.57;;
71622;SDS011;59473;53.214;5.728;2023-09-07T04:39:50;8.57;;;4.43;;
71622;SDS011;59473;53.214;5.728;2023-09-07T04:42:16;9.85;;;4.85;;
71622;SDS011;59473;53.214;5.728;2023-09-07T04:44:41;9.37;;;4.67;;
71622;SDS011;59473;53.214;5.728;2023-09-07T04:47:07;7.97;;;4.73;;
71622;SDS011;59473;53.214;5.728;2023-09-07T04:49:32;8.13;;;5.03;;
71622;SDS011;59473;53.214;5.728;2023-09-07T04:51:57;11.60;;;5.07;;
71622;SDS011;59473;53.214;5.728;2023-09-07T04:54:22;12.97;;;5.40;;
71622;SDS011;59473;53.214;5.728;2023-09-07T04:56:47;8.97;;;5.17;;
71622;SDS011;59473;53.214;5.728;2023-09-07T04:59:13;9.37;;;5.23;;
71622;SDS011;59473;53.214;5.728;2023-09-07T05:01:38;8.97;;;5.00;;
71622;SDS011;59473;53.214;5.728;2023-09-07T05:04:03;15.47;;;5.20;;
71622;SDS011;59473;53.214;5.728;2023-09-07T05:06:29;10.55;;;5.05;;
71622;SDS011;59473;53.214;5.728;2023-09-07T05:08:54;11.20;;;5.80;;
71622;SDS011;59473;53.214;5.728;2023-09-07T05:11:19;11.50;;;5.50;;
71622;SDS011;59473;53.214;5.728;2023-09-07T05:13:44;11.60;;;5.37;;
71622;SDS011;59473;53.214;5.728;2023-09-07T05:16:10;9.83;;;4.97;;
71622;SDS011;59473;53.214;5.728;2023-09-07T05:18:35;10.43;;;5.40;;
71622;SDS011;59473;53.214;5.728;2023-09-07T05:21:00;10.40;;;5.07;;
71622;SDS011;59473;53.214;5.728;2023-09-07T05:23:25;11.87;;;5.50;;
71622;SDS011;59473;53.214;5.728;2023-09-07T05:25:52;9.70;;;5.23;;
71622;SDS011;59473;53.214;5.728;2023-09-07T05:28:18;11.07;;;5.45;;
71622;SDS011;59473;53.214;5.728;2023-09-07T05:30:43;8.75;;;5.22;;
71622;SDS011;59473;53.214;5.728;2023-09-07T05:33:09;10.70;;;5.70;;
71622;SDS011;59473;53.214;5.728;2023-09-07T05:35:34;14.07;;;5.33;;
71622;SDS011;59473;53.214;5.728;2023-09-07T05:37:59;9.17;;;4.83;;
71622;SDS011;59473;53.214;5.728;2023-09-07T05:40:25;10.10;;;5.63;;
71622;SDS011;59473;53.214;5.728;2023-09-07T05:42:50;8.73;;;5.10;;
71622;SDS011;59473;53.214;5.728;2023-09-07T05:45:15;12.00;;;5.60;;
71622;SDS011;59473;53.214;5.728;2023-09-07T05:47:40;15.18;;;5.40;;
71622;SDS011;59473;53.214;5.728;2023-09-07T05:50:06;12.32;;;5.75;;
71622;SDS011;59473;53.214;5.728;2023-09-07T05:52:31;10.43;;;5.20;;
71622;SDS011;59473;53.214;5.728;2023-09-07T05:54:56;10.57;;;5.23;;
71622;SDS011;59473;53.214;5.728;2023-09-07T05:57:21;9.97;;;5.00;;
71622;SDS011;59473;53.214;5.728;2023-09-07T05:59:46;8.80;;;5.03;;
71622;SDS011;59473;53.214;5.728;2023-09-07T06:02:12;14.73;;;5.33;;
71622;SDS011;59473;53.214;5.728;2023-09-07T06:04:37;12.50;;;5.30;;
71622;SDS011;59473;53.214;5.728;2023-09-07T06:07:02;10.57;;;4.97;;
71622;SDS011;59473;53.214;5.728;2023-09-07T06:09:27;8.93;;;5.23;;
71622;SDS011;59473;53.214;5.728;2023-09-07T06:11:54;8.35;;;4.70;;
71622;SDS011;59473;53.214;5.728;2023-09-07T06:14:19;10.45;;;4.95;;
71622;SDS011;59473;53.214;5.728;2023-09-07T06:16:44;9.73;;;4.83;;
71622;SDS011;59473;53.214;5.728;2023-09-07T06:19:10;8.80;;;4.90;;
71622;SDS011;59473;53.214;5.728;2023-09-07T06:21:35;7.57;;;4.43;;
71622;SDS011;59473;53.214;5.728;2023-09-07T06:24:00;15.03;;;5.03;;
71622;SDS011;59473;53.214;5.728;2023-09-07T06:26:25;8.13;;;4.27;;
71622;SDS011;59473;53.214;5.728;2023-09-07T06:28:51;8.63;;;4.80;;
71622;SDS011;59473;53.214;5.728;2023-09-07T06:31:16;8.63;;;4.30;;
71622;SDS011;59473;53.214;5.728;2023-09-07T06:33:41;8.47;;;4.17;;
71622;SDS011;59473;53.214;5.728;2023-09-07T06:36:06;8.60;;;4.50;;
71622;SDS011;59473;53.214;5.728;2023-09-07T06:38:32;7.87;;;4.37;;
71622;SDS011;59473;53.214;5.728;2023-09-07T06:40:57;10.53;;;4.40;;
71622;SDS011;59473;53.214;5.728;2023-09-07T06:43:22;8.60;;;4.10;;
71622;SDS011;59473;53.214;5.728;2023-09-07T06:45:48;10.30;;;4.72;;
71622;SDS011;59473;53.214;5.728;2023-09-07T06:48:13;8.60;;;4.40;;
71622;SDS011;59473;53.214;5.728;2023-09-07T06:50:38;10.47;;;4.80;;
71622;SDS011;59473;53.214;5.728;2023-09-07T06:53:03;10.27;;;4.40;;
71622;SDS011;59473;53.214;5.728;2023-09-07T06:55:29;8.73;;;3.77;;
71622;SDS011;59473;53.214;5.728;2023-09-07T06:57:54;7.77;;;4.30;;
71622;SDS011;59473;53.214;5.728;2023-09-07T07:00:20;8.60;;;3.85;;
71622;SDS011;59473;53.214;5.728;2023-09-07T07:02:45;7.17;;;3.83;;
71622;SDS011;59473;53.214;5.728;2023-09-07T07:05:11;8.97;;;4.40;;
71622;SDS011;59473;53.214;5.728;2023-09-07T07:07:36;9.47;;;4.00;;
71622;SDS011;59473;53.214;5.728;2023-09-07T07:10:01;8.50;;;4.07;;
71622;SDS011;59473;53.214;5.728;2023-09-07T07:12:28;7.63;;;3.95;;
71622;SDS011;59473;53.214;5.728;2023-09-07T07:14:53;7.17;;;3.97;;
71622;SDS011;59473;53.214;5.728;2023-09-07T07:17:18;11.70;;;3.87;;
71622;SDS011;59473;53.214;5.728;2023-09-07T07:19:43;8.27;;;4.47;;
71622;SDS011;59473;53.214;5.728;2023-09-07T07:22:09;7.90;;;4.37;;
71622;SDS011;59473;53.214;5.728;2023-09-07T07:24:34;8.37;;;4.10;;
71622;SDS011;59473;53.214;5.728;2023-09-07T07:26:59;8.83;;;4.27;;
71622;SDS011;59473;53.214;5.728;2023-09-07T07:29:24;8.40;;;4.30;;
71622;SDS011;59473;53.214;5.728;2023-09-07T07:31:50;9.53;;;4.17;;
71622;SDS011;59473;53.214;5.728;2023-09-07T07:34:15;7.87;;;4.03;;
71622;SDS011;59473;53.214;5.728;2023-09-07T07:36:40;11.70;;;4.17;;
71622;SDS011;59473;53.214;5.728;2023-09-07T07:39:05;9.13;;;4.00;;
71622;SDS011;59473;53.214;5.728;2023-09-07T07:41:34;8.20;;;3.67;;
71622;SDS011;59473;53.214;5.728;2023-09-07T07:43:59;8.65;;;4.28;;
71622;SDS011;59473;53.214;5.728;2023-09-07T07:46:24;7.70;;;3.63;;
71622;SDS011;59473;53.214;5.728;2023-09-07T07:48:50;9.00;;;4.10;;
71622;SDS011;59473;53.214;5.728;2023-09-07T07:51:15;7.90;;;3.73;;
71622;SDS011;59473;53.214;5.728;2023-09-07T07:53:40;7.23;;;3.90;;
71622;SDS011;59473;53.214;5.728;2023-09-07T07:56:06;8.10;;;4.00;;
71622;SDS011;59473;53.214;5.728;2023-09-07T07:58:31;8.23;;;3.60;;
71622;SDS011;59473;53.214;5.728;2023-09-07T08:00:56;8.10;;;3.47;;
71622;SDS011;59473;53.214;5.728;2023-09-07T08:03:23;9.50;;;4.22;;
71622;SDS011;59473;53.214;5.728;2023-09-07T08:05:48;7.33;;;3.93;;
71622;SDS011;59473;53.214;5.728;2023-09-07T08:08:14;6.90;;;3.80;;
71622;SDS011;59473;53.214;5.728;2023-09-07T08:10:39;8.00;;;3.97;;
71622;SDS011;59473;53.214;5.728;2023-09-07T08:13:06;8.93;;;3.80;;
71622;SDS011;59473;53.214;5.728;2023-09-07T08:15:32;8.00;;;3.57;;
71622;SDS011;59473;53.214;5.728;2023-09-07T08:17:58;8.13;;;3.42;;
71622;SDS011;59473;53.214;5.728;2023-09-07T08:20:24;8.03;;;3.63;;
71622;SDS011;59473;53.214;5.728;2023-09-07T08:22:49;7.50;;;3.50;;
71622;SDS011;59473;53.214;5.728;2023-09-07T08:25:15;7.53;;;3.70;;
71622;SDS011;59473;53.214;5.728;2023-09-07T08:27:40;10.77;;;3.30;;
71622;SDS011;59473;53.214;5.728;2023-09-07T08:30:09;9.60;;;3.78;;
71622;SDS011;59473;53.214;5.728;2023-09-07T08:32:34;10.48;;;3.90;;
71622;SDS011;59473;53.214;5.728;2023-09-07T08:35:00;11.13;;;3.70;;
71622;SDS011;59473;53.214;5.728;2023-09-07T08:37:26;6.97;;;3.40;;
71622;SDS011;59473;53.214;5.728;2023-09-07T08:39:53;8.87;;;3.60;;
71622;SDS011;59473;53.214;5.728;2023-09-07T08:42:19;6.85;;;3.50;;
71622;SDS011;59473;53.214;5.728;2023-09-07T08:44:44;7.73;;;3.60;;
71622;SDS011;59473;53.214;5.728;2023-09-07T08:47:11;11.70;;;3.90;;
71622;SDS011;59473;53.214;5.728;2023-09-07T08:49:37;8.10;;;3.38;;
71622;SDS011;59473;53.214;5.728;2023-09-07T08:52:03;7.93;;;3.20;;
71622;SDS011;59473;53.214;5.728;2023-09-07T08:54:29;8.27;;;3.67;;
71622;SDS011;59473;53.214;5.728;2023-09-07T08:56:56;7.87;;;2.93;;
71622;SDS011;59473;53.214;5.728;2023-09-07T08:59:22;11.68;;;3.28;;
71622;SDS011;59473;53.214;5.728;2023-09-07T09:01:47;18.37;;;4.77;;
71622;SDS011;59473;53.214;5.728;2023-09-07T09:04:12;9.07;;;3.20;;
71622;SDS011;59473;53.214;5.728;2023-09-07T09:06:38;11.98;;;3.70;;
71622;SDS011;59473;53.214;5.728;2023-09-07T09:09:03;11.33;;;3.30;;
71622;SDS011;59473;53.214;5.728;2023-09-07T09:11:31;7.85;;;3.70;;
71622;SDS011;59473;53.214;5.728;2023-09-07T09:13:56;7.83;;;3.80;;
71622;SDS011;59473;53.214;5.728;2023-09-07T09:16:22;7.53;;;3.77;;
71622;SDS011;59473;53.214;5.728;2023-09-07T09:18:51;11.20;;;3.87;;
71622;SDS011;59473;53.214;5.728;2023-09-07T09:21:18;9.80;;;4.03;;
71622;SDS011;59473;53.214;5.728;2023-09-07T09:23:43;9.87;;;3.60;;
71622;SDS011;59473;53.214;5.728;2023-09-07T09:26:08;8.60;;;3.42;;
71622;SDS011;59473;53.214;5.728;2023-09-07T09:28:34;7.90;;;3.60;;
71622;SDS011;59473;53.214;5.728;2023-09-07T09:30:59;8.57;;;4.03;;
71622;SDS011;59473;53.214;5.728;2023-09-07T09:33:25;8.82;;;3.65;;
71622;SDS011;59473;53.214;5.728;2023-09-07T09:35:51;8.23;;;3.87;;
71622;SDS011;59473;53.214;5.728;2023-09-07T09:38:17;8.25;;;3.35;;
71622;SDS011;59473;53.214;5.728;2023-09-07T09:40:43;8.50;;;3.80;;
71622;SDS011;59473;53.214;5.728;2023-09-07T09:43:08;7.10;;;3.80;;
71622;SDS011;59473;53.214;5.728;2023-09-07T09:45:34;6.70;;;3.20;;
71622;SDS011;59473;53.214;5.728;2023-09-07T09:48:00;8.50;;;3.30;;
71622;SDS011;59473;53.214;5.728;2023-09-07T09:50:26;9.73;;;3.95;;
71622;SDS011;59473;53.214;5.728;2023-09-07T09:52:54;8.77;;;3.77;;
71622;SDS011;59473;53.214;5.728;2023-09-07T09:55:20;8.00;;;3.78;;
71622;SDS011;59473;53.214;5.728;2023-09-07T09:57:46;9.43;;;3.53;;
71622;SDS011;59473;53.214;5.728;2023-09-07T10:00:12;7.13;;;3.70;;
71622;SDS011;59473;53.214;5.728;2023-09-07T10:05:19;7.88;;;3.33;;
71622;SDS011;59473;53.214;5.728;2023-09-07T10:07:47;7.13;;;3.47;;
71622;SDS011;59473;53.214;5.728;2023-09-07T10:10:13;8.75;;;3.88;;
71622;SDS011;59473;53.214;5.728;2023-09-07T10:12:42;7.82;;;3.78;;
71622;SDS011;59473;53.214;5.728;2023-09-07T10:15:19;7.63;;;3.67;;
71622;SDS011;59473;53.214;5.728;2023-09-07T10:17:44;10.45;;;3.60;;
71622;SDS011;59473;53.214;5.728;2023-09-07T10:20:11;11.93;;;3.50;;
71622;SDS011;59473;53.214;5.728;2023-09-07T10:22:37;7.35;;;3.22;;
71622;SDS011;59473;53.214;5.728;2023-09-07T10:25:02;7.78;;;3.03;;
71622;SDS011;59473;53.214;5.728;2023-09-07T10:27:36;16.20;;;3.78;;
71622;SDS011;59473;53.214;5.728;2023-09-07T10:30:01;10.55;;;4.10;;
71622;SDS011;59473;53.214;5.728;2023-09-07T10:32:37;7.30;;;3.35;;
71622;SDS011;59473;53.214;5.728;2023-09-07T10:35:11;11.13;;;3.45;;
71622;SDS011;59473;53.214;5.728;2023-09-07T10:37:37;11.95;;;3.40;;
71622;SDS011;59473;53.214;5.728;2023-09-07T10:40:02;9.25;;;3.30;;
71622;SDS011;59473;53.214;5.728;2023-09-07T10:42:29;8.23;;;3.25;;
71622;SDS011;59473;53.214;5.728;2023-09-07T10:44:55;7.23;;;3.47;;
71622;SDS011;59473;53.214;5.728;2023-09-07T10:47:20;10.03;;;3.23;;
71622;SDS011;59473;53.214;5.728;2023-09-07T10:49:45;7.28;;;3.03;;
71622;SDS011;59473;53.214;5.728;2023-09-07T10:52:11;11.77;;;3.72;;
71622;SDS011;59473;53.214;5.728;2023-09-07T10:54:36;7.03;;;3.22;;
71622;SDS011;59473;53.214;5.728;2023-09-07T10:57:11;10.45;;;3.38;;
71622;SDS011;59473;53.214;5.728;2023-09-07T10:59:38;11.80;;;3.72;;
71622;SDS011;59473;53.214;5.728;2023-09-07T11:02:06;6.63;;;3.00;;
71622;SDS011;59473;53.214;5.728;2023-09-07T11:04:32;9.83;;;3.30;;
71622;SDS011;59473;53.214;5.728;2023-09-07T11:06:57;10.65;;;3.47;;
71622;SDS011;59473;53.214;5.728;2023-09-07T11:09:23;8.43;;;3.37;;
71622;SDS011;59473;53.214;5.728;2023-09-07T11:11:48;6.73;;;3.40;;
71622;SDS011;59473;53.214;5.728;2023-09-07T11:14:13;9.80;;;3.20;;
71622;SDS011;59473;53.214;5.728;2023-09-07T11:16:40;6.53;;;3.17;;
71622;SDS011;59473;53.214;5.728;2023-09-07T11:19:06;11.13;;;3.25;;
71622;SDS011;59473;53.214;5.728;2023-09-07T11:21:31;14.05;;;3.17;;
71622;SDS011;59473;53.214;5.728;2023-09-07T11:23:59;10.47;;;3.17;;
71622;SDS011;59473;53.214;5.728;2023-09-07T11:26:25;11.85;;;2.88;;
71622;SDS011;59473;53.214;5.728;2023-09-07T11:28:50;7.10;;;2.97;;
71622;SDS011;59473;53.214;5.728;2023-09-07T11:31:18;12.97;;;2.93;;
71622;SDS011;59473;53.214;5.728;2023-09-07T11:33:43;8.82;;;3.13;;
71622;SDS011;59473;53.214;5.728;2023-09-07T11:36:08;11.10;;;3.63;;
71622;SDS011;59473;53.214;5.728;2023-09-07T11:38:36;9.23;;;3.17;;
71622;SDS011;59473;53.214;5.728;2023-09-07T11:41:02;9.45;;;3.50;;
71622;SDS011;59473;53.214;5.728;2023-09-07T11:43:28;7.87;;;3.23;;
71622;SDS011;59473;53.214;5.728;2023-09-07T11:45:53;6.50;;;3.17;;
71622;SDS011;59473;53.214;5.728;2023-09-07T11:48:19;9.40;;;3.50;;
71622;SDS011;59473;53.214;5.728;2023-09-07T11:50:44;7.07;;;3.20;;
71622;SDS011;59473;53.214;5.728;2023-09-07T11:53:09;11.05;;;3.33;;
71622;SDS011;59473;53.214;5.728;2023-09-07T11:55:34;8.57;;;3.50;;
71622;SDS011;59473;53.214;5.728;2023-09-07T11:58:00;10.52;;;3.45;;
71622;SDS011;59473;53.214;5.728;2023-09-07T12:00:26;7.87;;;3.10;;
71622;SDS011;59473;53.214;5.728;2023-09-07T12:02:52;6.53;;;2.70;;
71622;SDS011;59473;53.214;5.728;2023-09-07T12:05:17;8.77;;;3.22;;
71622;SDS011;59473;53.214;5.728;2023-09-07T12:07:44;7.40;;;3.05;;
71622;SDS011;59473;53.214;5.728;2023-09-07T12:10:09;8.77;;;3.10;;
71622;SDS011;59473;53.214;5.728;2023-09-07T12:12:42;8.43;;;3.10;;
71622;SDS011;59473;53.214;5.728;2023-09-07T12:15:08;6.78;;;3.28;;
71622;SDS011;59473;53.214;5.728;2023-09-07T12:17:35;6.35;;;3.20;;
71622;SDS011;59473;53.214;5.728;2023-09-07T12:20:00;7.57;;;2.75;;
71622;SDS011;59473;53.214;5.728;2023-09-07T12:22:26;7.32;;;3.30;;
71622;SDS011;59473;53.214;5.728;2023-09-07T12:24:51;7.70;;;3.47;;
71622;SDS011;59473;53.214;5.728;2023-09-07T12:27:16;9.70;;;3.40;;
71622;SDS011;59473;53.214;5.728;2023-09-07T12:29:42;7.03;;;3.13;;
71622;SDS011;59473;53.214;5.728;2023-09-07T12:32:07;6.47;;;3.20;;
71622;SDS011;59473;53.214;5.728;2023-09-07T12:34:32;7.47;;;2.93;;
71622;SDS011;59473;53.214;5.728;2023-09-07T12:36:57;6.10;;;3.00;;
71622;SDS011;59473;53.214;5.728;2023-09-07T12:39:23;5.97;;;2.70;;
71622;SDS011;59473;53.214;5.728;2023-09-07T12:41:48;8.10;;;2.97;;
71622;SDS011;59473;53.214;5.728;2023-09-07T12:44:13;9.80;;;3.17;;
71622;SDS011;59473;53.214;5.728;2023-09-07T12:46:38;7.00;;;2.90;;
71622;SDS011;59473;53.214;5.728;2023-09-07T12:49:04;6.35;;;3.47;;
71622;SDS011;59473;53.214;5.728;2023-09-07T12:51:29;7.55;;;3.42;;
71622;SDS011;59473;53.214;5.728;2023-09-07T12:53:55;5.80;;;2.92;;
71622;SDS011;59473;53.214;5.728;2023-09-07T12:56:20;10.27;;;3.05;;
71622;SDS011;59473;53.214;5.728;2023-09-07T12:58:46;6.15;;;2.90;;
71622;SDS011;59473;53.214;5.728;2023-09-07T13:01:11;7.67;;;3.20;;
71622;SDS011;59473;53.214;5.728;2023-09-07T13:03:40;11.80;;;3.33;;
71622;SDS011;59473;53.214;5.728;2023-09-07T13:06:05;9.80;;;3.03;;
71622;SDS011;59473;53.214;5.728;2023-09-07T13:08:30;8.68;;;3.20;;
71622;SDS011;59473;53.214;5.728;2023-09-07T13:10:56;6.93;;;3.30;;
71622;SDS011;59473;53.214;5.728;2023-09-07T13:13:22;6.38;;;3.15;;
71622;SDS011;59473;53.214;5.728;2023-09-07T13:15:49;8.77;;;2.90;;
71622;SDS011;59473;53.214;5.728;2023-09-07T13:18:15;5.97;;;3.13;;
71622;SDS011;59473;53.214;5.728;2023-09-07T13:20:40;12.00;;;3.87;;
71622;SDS011;59473;53.214;5.728;2023-09-07T13:23:05;7.07;;;3.30;;
71622;SDS011;59473;53.214;5.728;2023-09-07T13:25:31;8.87;;;3.30;;
71622;SDS011;59473;53.214;5.728;2023-09-07T13:27:56;10.60;;;4.05;;
71622;SDS011;59473;53.214;5.728;2023-09-07T13:30:21;10.00;;;3.47;;
71622;SDS011;59473;53.214;5.728;2023-09-07T13:32:46;7.30;;;3.07;;
71622;SDS011;59473;53.214;5.728;2023-09-07T13:35:11;9.70;;;3.20;;
71622;SDS011;59473;53.214;5.728;2023-09-07T13:37:37;9.67;;;3.53;;
71622;SDS011;59473;53.214;5.728;2023-09-07T13:40:02;7.73;;;3.53;;
71622;SDS011;59473;53.214;5.728;2023-09-07T13:42:28;9.37;;;3.60;;
71622;SDS011;59473;53.214;5.728;2023-09-07T13:44:53;9.63;;;3.50;;
71622;SDS011;59473;53.214;5.728;2023-09-07T13:47:20;12.05;;;3.50;;
71622;SDS011;59473;53.214;5.728;2023-09-07T13:49:45;9.07;;;3.50;;
71622;SDS011;59473;53.214;5.728;2023-09-07T13:52:10;6.83;;;3.13;;
71622;SDS011;59473;53.214;5.728;2023-09-07T13:54:35;7.67;;;3.40;;
71622;SDS011;59473;53.214;5.728;2023-09-07T13:57:00;7.80;;;3.30;;
71622;SDS011;59473;53.214;5.728;2023-09-07T13:59:26;7.10;;;3.40;;
71622;SDS011;59473;53.214;5.728;2023-09-07T14:01:53;7.80;;;3.10;;
71622;SDS011;59473;53.214;5.728;2023-09-07T14:04:19;9.27;;;3.42;;
71622;SDS011;59473;53.214;5.728;2023-09-07T14:06:44;7.70;;;3.33;;
71622;SDS011;59473;53.214;5.728;2023-09-07T14:09:09;5.87;;;3.10;;
71622;SDS011;59473;53.214;5.728;2023-09-07T14:11:34;7.17;;;3.57;;
71622;SDS011;59473;53.214;5.728;2023-09-07T14:13:59;9.10;;;3.40;;
71622;SDS011;59473;53.214;5.728;2023-09-07T14:16:25;8.33;;;3.30;;
71622;SDS011;59473;53.214;5.728;2023-09-07T14:18:50;5.30;;;2.73;;
71622;SDS011;59473;53.214;5.728;2023-09-07T14:21:15;5.97;;;2.73;;
71622;SDS011;59473;53.214;5.728;2023-09-07T14:23:41;7.53;;;3.00;;
71622;SDS011;59473;53.214;5.728;2023-09-07T14:26:07;7.72;;;2.88;;
71622;SDS011;59473;53.214;5.728;2023-09-07T14:28:33;8.23;;;3.20;;
71622;SDS011;59473;53.214;5.728;2023-09-07T14:30:58;7.85;;;2.95;;
71622;SDS011;59473;53.214;5.728;2023-09-07T14:33:28;7.78;;;3.03;;
71622;SDS011;59473;53.214;5.728;2023-09-07T14:35:53;5.60;;;2.73;;
71622;SDS011;59473;53.214;5.728;2023-09-07T14:38:20;6.72;;;3.03;;
71622;SDS011;59473;53.214;5.728;2023-09-07T14:40:45;6.47;;;3.20;;